Terminal Aerodrome Forecast
Issued by NWS

Home | Current Version | Previous Version | Text Only | Print | Product List | Glossary On
Versions: 1 2 3 4 5 6 7 8 9 10 11 12 13 14 15 16 17 18 19 20 21 22 23 24 25
000
FTUS41 KOKX 010800 AAB
TAFHPN
TAF AMD
KHPN 010820Z 0108/0206 VRB02KT 5SM BR SCT150 BKN250
      TEMPO 0108/0111 2SM BR
     FM011500 16006KT P6SM FEW060 BKN250
     FM011900 18009KT P6SM SCT060 BKN150
     FM020000 18004KT P6SM FEW060 BKN150
     FM020300 VRB05KT P6SM SCT050 BKN100
      AMD NOT SKED=

USA.gov is the U.S. government's official web portal to all federal, state and local government web resources and services.